sensor_id;sensor_type;location;lat;lon;timestamp;P1;durP1;ratioP1;P2;durP2;ratioP2
20986;SDS011;10652;50.306;8.570;2022-10-04T00:00:26;10.43;;;6.53;;
20986;SDS011;10652;50.306;8.570;2022-10-04T00:13:03;7.78;;;4.40;;
20986;SDS011;10652;50.306;8.570;2022-10-04T00:17:10;6.38;;;4.60;;
20986;SDS011;10652;50.306;8.570;2022-10-04T00:21:15;7.88;;;4.57;;
20986;SDS011;10652;50.306;8.570;2022-10-04T00:25:18;9.05;;;5.00;;
20986;SDS011;10652;50.306;8.570;2022-10-04T00:29:34;7.53;;;5.15;;
20986;SDS011;10652;50.306;8.570;2022-10-04T00:46:20;9.18;;;5.63;;
20986;SDS011;10652;50.306;8.570;2022-10-04T00:50:26;6.90;;;4.85;;
20986;SDS011;10652;50.306;8.570;2022-10-04T00:54:42;8.15;;;4.88;;
20986;SDS011;10652;50.306;8.570;2022-10-04T01:03:04;8.70;;;5.20;;
20986;SDS011;10652;50.306;8.570;2022-10-04T01:07:12;8.48;;;4.93;;
20986;SDS011;10652;50.306;8.570;2022-10-04T01:11:25;7.07;;;4.78;;
20986;SDS011;10652;50.306;8.570;2022-10-04T01:20:00;7.60;;;4.97;;
20986;SDS011;10652;50.306;8.570;2022-10-04T01:28:09;4.13;;;3.00;;
20986;SDS011;10652;50.306;8.570;2022-10-04T01:32:11;4.57;;;3.17;;
20986;SDS011;10652;50.306;8.570;2022-10-04T01:36:13;7.00;;;4.10;;
20986;SDS011;10652;50.306;8.570;2022-10-04T01:40:15;6.15;;;3.80;;
20986;SDS011;10652;50.306;8.570;2022-10-04T01:44:30;6.35;;;4.55;;
20986;SDS011;10652;50.306;8.570;2022-10-04T01:48:39;6.10;;;4.32;;
20986;SDS011;10652;50.306;8.570;2022-10-04T01:52:48;6.43;;;4.38;;
20986;SDS011;10652;50.306;8.570;2022-10-04T01:56:58;6.60;;;4.15;;
20986;SDS011;10652;50.306;8.570;2022-10-04T02:01:06;6.15;;;3.80;;
20986;SDS011;10652;50.306;8.570;2022-10-04T02:05:17;5.20;;;3.65;;
20986;SDS011;10652;50.306;8.570;2022-10-04T02:09:28;5.47;;;3.35;;
20986;SDS011;10652;50.306;8.570;2022-10-04T02:13:36;5.50;;;3.33;;
20986;SDS011;10652;50.306;8.570;2022-10-04T02:17:41;7.55;;;2.83;;
20986;SDS011;10652;50.306;8.570;2022-10-04T02:21:44;5.05;;;2.40;;
20986;SDS011;10652;50.306;8.570;2022-10-04T02:25:49;4.90;;;2.40;;
20986;SDS011;10652;50.306;8.570;2022-10-04T02:29:58;3.88;;;2.85;;
20986;SDS011;10652;50.306;8.570;2022-10-04T02:34:04;4.05;;;3.05;;
20986;SDS011;10652;50.306;8.570;2022-10-04T02:38:20;4.25;;;3.03;;
20986;SDS011;10652;50.306;8.570;2022-10-04T02:42:27;5.70;;;2.70;;
20986;SDS011;10652;50.306;8.570;2022-10-04T02:46:45;4.32;;;2.80;;
20986;SDS011;10652;50.306;8.570;2022-10-04T02:50:55;3.70;;;3.25;;
20986;SDS011;10652;50.306;8.570;2022-10-04T02:55:08;3.60;;;3.13;;
20986;SDS011;10652;50.306;8.570;2022-10-04T02:59:20;3.70;;;2.72;;
20986;SDS011;10652;50.306;8.570;2022-10-04T03:03:24;5.10;;;3.10;;
20986;SDS011;10652;50.306;8.570;2022-10-04T03:07:30;6.65;;;3.10;;
20986;SDS011;10652;50.306;8.570;2022-10-04T03:11:37;3.70;;;2.90;;
20986;SDS011;10652;50.306;8.570;2022-10-04T03:19:46;5.35;;;3.13;;
20986;SDS011;10652;50.306;8.570;2022-10-04T03:23:50;4.53;;;3.40;;
20986;SDS011;10652;50.306;8.570;2022-10-04T03:27:53;6.15;;;3.60;;
20986;SDS011;10652;50.306;8.570;2022-10-04T03:32:00;5.53;;;3.15;;
20986;SDS011;10652;50.306;8.570;2022-10-04T03:36:05;4.18;;;3.00;;
20986;SDS011;10652;50.306;8.570;2022-10-04T03:40:08;3.78;;;2.70;;
20986;SDS011;10652;50.306;8.570;2022-10-04T03:44:13;4.82;;;3.22;;
20986;SDS011;10652;50.306;8.570;2022-10-04T03:48:21;5.17;;;3.30;;
20986;SDS011;10652;50.306;8.570;2022-10-04T03:52:31;5.00;;;3.40;;
20986;SDS011;10652;50.306;8.570;2022-10-04T03:56:35;4.07;;;2.72;;
20986;SDS011;10652;50.306;8.570;2022-10-04T04:00:42;3.88;;;2.60;;
20986;SDS011;10652;50.306;8.570;2022-10-04T04:05:15;3.78;;;2.92;;
20986;SDS011;10652;50.306;8.570;2022-10-04T04:09:25;3.33;;;2.40;;
20986;SDS011;10652;50.306;8.570;2022-10-04T04:13:45;4.57;;;2.70;;
20986;SDS011;10652;50.306;8.570;2022-10-04T04:17:54;3.00;;;2.60;;
20986;SDS011;10652;50.306;8.570;2022-10-04T04:22:00;4.22;;;2.88;;
20986;SDS011;10652;50.306;8.570;2022-10-04T04:26:13;4.47;;;3.20;;
20986;SDS011;10652;50.306;8.570;2022-10-04T04:30:24;5.22;;;3.20;;
20986;SDS011;10652;50.306;8.570;2022-10-04T04:34:28;5.00;;;2.95;;
20986;SDS011;10652;50.306;8.570;2022-10-04T04:38:32;5.20;;;2.90;;
20986;SDS011;10652;50.306;8.570;2022-10-04T04:42:36;5.38;;;3.05;;
20986;SDS011;10652;50.306;8.570;2022-10-04T04:46:38;6.78;;;3.50;;
20986;SDS011;10652;50.306;8.570;2022-10-04T04:50:47;5.97;;;3.00;;
20986;SDS011;10652;50.306;8.570;2022-10-04T04:54:53;5.82;;;3.08;;
20986;SDS011;10652;50.306;8.570;2022-10-04T04:58:57;4.15;;;3.22;;
20986;SDS011;10652;50.306;8.570;2022-10-04T05:03:03;7.97;;;3.75;;
20986;SDS011;10652;50.306;8.570;2022-10-04T05:07:14;4.40;;;3.90;;
20986;SDS011;10652;50.306;8.570;2022-10-04T05:11:20;6.00;;;3.97;;
20986;SDS011;10652;50.306;8.570;2022-10-04T05:15:30;5.10;;;4.25;;
20986;SDS011;10652;50.306;8.570;2022-10-04T05:19:35;5.32;;;3.92;;
20986;SDS011;10652;50.306;8.570;2022-10-04T05:23:40;6.53;;;3.80;;
20986;SDS011;10652;50.306;8.570;2022-10-04T05:27:42;4.55;;;3.30;;
20986;SDS011;10652;50.306;8.570;2022-10-04T05:31:50;6.70;;;3.42;;
20986;SDS011;10652;50.306;8.570;2022-10-04T05:44:16;8.68;;;4.43;;
20986;SDS011;10652;50.306;8.570;2022-10-04T05:48:24;6.90;;;4.47;;
20986;SDS011;10652;50.306;8.570;2022-10-04T05:52:28;5.63;;;3.53;;
20986;SDS011;10652;50.306;8.570;2022-10-04T06:01:21;6.35;;;4.32;;
20986;SDS011;10652;50.306;8.570;2022-10-04T06:05:51;8.52;;;4.38;;
20986;SDS011;10652;50.306;8.570;2022-10-04T06:18:50;8.13;;;4.47;;
20986;SDS011;10652;50.306;8.570;2022-10-04T06:23:10;6.28;;;4.20;;
20986;SDS011;10652;50.306;8.570;2022-10-04T06:31:31;6.15;;;4.07;;
20986;SDS011;10652;50.306;8.570;2022-10-04T06:49:15;8.23;;;4.80;;
20986;SDS011;10652;50.306;8.570;2022-10-04T06:53:45;11.25;;;4.35;;
20986;SDS011;10652;50.306;8.570;2022-10-04T06:58:08;11.90;;;6.55;;
20986;SDS011;10652;50.306;8.570;2022-10-04T07:02:28;8.98;;;5.55;;
20986;SDS011;10652;50.306;8.570;2022-10-04T07:06:37;10.40;;;5.90;;
20986;SDS011;10652;50.306;8.570;2022-10-04T07:10:49;11.32;;;7.78;;
20986;SDS011;10652;50.306;8.570;2022-10-04T07:14:56;13.52;;;6.95;;
20986;SDS011;10652;50.306;8.570;2022-10-04T07:19:45;8.80;;;4.90;;
20986;SDS011;10652;50.306;8.570;2022-10-04T07:23:46;7.25;;;4.60;;
20986;SDS011;10652;50.306;8.570;2022-10-04T07:27:54;7.93;;;3.97;;
20986;SDS011;10652;50.306;8.570;2022-10-04T07:32:32;9.23;;;4.35;;
20986;SDS011;10652;50.306;8.570;2022-10-04T07:36:40;8.82;;;4.60;;
20986;SDS011;10652;50.306;8.570;2022-10-04T07:49:22;6.20;;;4.10;;
20986;SDS011;10652;50.306;8.570;2022-10-04T07:57:56;7.38;;;3.83;;
20986;SDS011;10652;50.306;8.570;2022-10-04T08:02:26;7.63;;;3.47;;
20986;SDS011;10652;50.306;8.570;2022-10-04T08:15:44;7.10;;;3.45;;
20986;SDS011;10652;50.306;8.570;2022-10-04T08:19:56;6.93;;;3.75;;
20986;SDS011;10652;50.306;8.570;2022-10-04T08:37:17;7.47;;;3.20;;
20986;SDS011;10652;50.306;8.570;2022-10-04T08:59:59;6.22;;;2.90;;
20986;SDS011;10652;50.306;8.570;2022-10-04T09:12:39;4.93;;;2.40;;
20986;SDS011;10652;50.306;8.570;2022-10-04T09:17:02;3.72;;;2.40;;
20986;SDS011;10652;50.306;8.570;2022-10-04T09:42:51;4.22;;;2.20;;
20986;SDS011;10652;50.306;8.570;2022-10-04T09:47:22;5.53;;;2.35;;
20986;SDS011;10652;50.306;8.570;2022-10-04T10:04:34;5.60;;;2.58;;
20986;SDS011;10652;50.306;8.570;2022-10-04T10:08:55;4.65;;;2.72;;
20986;SDS011;10652;50.306;8.570;2022-10-04T10:13:19;6.88;;;2.40;;
20986;SDS011;10652;50.306;8.570;2022-10-04T10:26:47;4.55;;;2.13;;
20986;SDS011;10652;50.306;8.570;2022-10-04T10:31:09;3.58;;;1.90;;
20986;SDS011;10652;50.306;8.570;2022-10-04T10:35:18;4.63;;;2.08;;
20986;SDS011;10652;50.306;8.570;2022-10-04T10:39:47;5.13;;;2.35;;
20986;SDS011;10652;50.306;8.570;2022-10-04T10:43:57;4.68;;;2.33;;
20986;SDS011;10652;50.306;8.570;2022-10-04T10:56:54;5.85;;;2.10;;
20986;SDS011;10652;50.306;8.570;2022-10-04T11:13:53;3.22;;;1.90;;
20986;SDS011;10652;50.306;8.570;2022-10-04T11:27:10;4.07;;;1.80;;
20986;SDS011;10652;50.306;8.570;2022-10-04T11:36:04;3.30;;;1.90;;
20986;SDS011;10652;50.306;8.570;2022-10-04T11:49:28;3.50;;;1.63;;
20986;SDS011;10652;50.306;8.570;2022-10-04T11:58:30;3.70;;;1.60;;
20986;SDS011;10652;50.306;8.570;2022-10-04T12:03:04;2.92;;;1.63;;
20986;SDS011;10652;50.306;8.570;2022-10-04T12:11:53;3.78;;;1.50;;
20986;SDS011;10652;50.306;8.570;2022-10-04T12:21:02;6.07;;;1.67;;
20986;SDS011;10652;50.306;8.570;2022-10-04T12:34:16;2.90;;;1.65;;
20986;SDS011;10652;50.306;8.570;2022-10-04T12:38:44;5.30;;;1.92;;
20986;SDS011;10652;50.306;8.570;2022-10-04T12:43:02;3.70;;;2.10;;
20986;SDS011;10652;50.306;8.570;2022-10-04T12:47:52;4.93;;;1.95;;
20986;SDS011;10652;50.306;8.570;2022-10-04T12:52:14;3.85;;;2.13;;
20986;SDS011;10652;50.306;8.570;2022-10-04T12:56:33;4.40;;;2.10;;
20986;SDS011;10652;50.306;8.570;2022-10-04T13:00:39;4.55;;;2.20;;
20986;SDS011;10652;50.306;8.570;2022-10-04T13:17:46;5.20;;;2.15;;
20986;SDS011;10652;50.306;8.570;2022-10-04T13:36:07;5.05;;;2.10;;
20986;SDS011;10652;50.306;8.570;2022-10-04T13:49:12;5.57;;;2.40;;
20986;SDS011;10652;50.306;8.570;2022-10-04T13:58:27;4.75;;;2.22;;
20986;SDS011;10652;50.306;8.570;2022-10-04T14:03:18;3.88;;;2.08;;
20986;SDS011;10652;50.306;8.570;2022-10-04T14:28:46;6.13;;;2.00;;
20986;SDS011;10652;50.306;8.570;2022-10-04T14:33:43;2.65;;;1.73;;
20986;SDS011;10652;50.306;8.570;2022-10-04T14:42:21;4.15;;;1.85;;
20986;SDS011;10652;50.306;8.570;2022-10-04T14:51:13;7.13;;;2.00;;
20986;SDS011;10652;50.306;8.570;2022-10-04T15:00:08;6.65;;;1.80;;
20986;SDS011;10652;50.306;8.570;2022-10-04T15:13:08;5.35;;;2.30;;
20986;SDS011;10652;50.306;8.570;2022-10-04T15:17:25;4.07;;;1.65;;
20986;SDS011;10652;50.306;8.570;2022-10-04T15:25:52;6.32;;;2.08;;
20986;SDS011;10652;50.306;8.570;2022-10-04T15:30:17;4.40;;;1.80;;
20986;SDS011;10652;50.306;8.570;2022-10-04T15:34:34;4.93;;;2.13;;
20986;SDS011;10652;50.306;8.570;2022-10-04T15:38:56;4.93;;;2.08;;
20986;SDS011;10652;50.306;8.570;2022-10-04T15:43:26;3.67;;;1.92;;
20986;SDS011;10652;50.306;8.570;2022-10-04T15:47:35;4.43;;;2.00;;
20986;SDS011;10652;50.306;8.570;2022-10-04T16:23:19;5.07;;;2.30;;
20986;SDS011;10652;50.306;8.570;2022-10-04T16:31:53;4.18;;;2.00;;
20986;SDS011;10652;50.306;8.570;2022-10-04T16:36:01;4.28;;;2.10;;
20986;SDS011;10652;50.306;8.570;2022-10-04T16:44:33;5.03;;;2.40;;
20986;SDS011;10652;50.306;8.570;2022-10-04T16:48:57;4.93;;;2.50;;
20986;SDS011;10652;50.306;8.570;2022-10-04T16:57:33;6.22;;;2.63;;
20986;SDS011;10652;50.306;8.570;2022-10-04T17:02:24;4.13;;;2.22;;
20986;SDS011;10652;50.306;8.570;2022-10-04T17:06:11;4.47;;;2.38;;
20986;SDS011;10652;50.306;8.570;2022-10-04T17:10:17;5.53;;;2.58;;
20986;SDS011;10652;50.306;8.570;2022-10-04T17:18:50;11.35;;;6.13;;
20986;SDS011;10652;50.306;8.570;2022-10-04T17:23:33;6.72;;;4.40;;
20986;SDS011;10652;50.306;8.570;2022-10-04T17:27:52;4.38;;;3.33;;
20986;SDS011;10652;50.306;8.570;2022-10-04T17:36:42;5.82;;;3.78;;
20986;SDS011;10652;50.306;8.570;2022-10-04T17:50:04;6.82;;;3.55;;
20986;SDS011;10652;50.306;8.570;2022-10-04T17:54:27;4.15;;;2.45;;
20986;SDS011;10652;50.306;8.570;2022-10-04T17:59:08;5.50;;;2.72;;
20986;SDS011;10652;50.306;8.570;2022-10-04T18:07:42;9.60;;;4.47;;
20986;SDS011;10652;50.306;8.570;2022-10-04T18:12:10;8.57;;;6.20;;
20986;SDS011;10652;50.306;8.570;2022-10-04T18:16:41;4.93;;;2.78;;
20986;SDS011;10652;50.306;8.570;2022-10-04T18:25:12;9.25;;;7.22;;
20986;SDS011;10652;50.306;8.570;2022-10-04T18:29:17;6.85;;;3.50;;
20986;SDS011;10652;50.306;8.570;2022-10-04T18:37:41;8.02;;;3.90;;
20986;SDS011;10652;50.306;8.570;2022-10-04T18:41:44;4.45;;;2.70;;
20986;SDS011;10652;50.306;8.570;2022-10-04T18:46:03;5.93;;;3.10;;
20986;SDS011;10652;50.306;8.570;2022-10-04T18:59:29;5.32;;;2.85;;
20986;SDS011;10652;50.306;8.570;2022-10-04T19:04:01;7.28;;;2.90;;
20986;SDS011;10652;50.306;8.570;2022-10-04T19:08:09;6.67;;;3.03;;
20986;SDS011;10652;50.306;8.570;2022-10-04T19:17:14;3.10;;;2.63;;
20986;SDS011;10652;50.306;8.570;2022-10-04T19:21:29;5.68;;;3.33;;
20986;SDS011;10652;50.306;8.570;2022-10-04T19:25:44;5.70;;;3.10;;
20986;SDS011;10652;50.306;8.570;2022-10-04T19:30:19;4.43;;;2.80;;
20986;SDS011;10652;50.306;8.570;2022-10-04T19:34:26;6.60;;;3.50;;
20986;SDS011;10652;50.306;8.570;2022-10-04T19:38:34;4.28;;;3.10;;
20986;SDS011;10652;50.306;8.570;2022-10-04T19:51:39;5.35;;;4.70;;
20986;SDS011;10652;50.306;8.570;2022-10-04T19:55:53;7.05;;;2.60;;
20986;SDS011;10652;50.306;8.570;2022-10-04T19:59:57;5.85;;;2.38;;
20986;SDS011;10652;50.306;8.570;2022-10-04T20:03:59;4.15;;;2.40;;
20986;SDS011;10652;50.306;8.570;2022-10-04T20:17:29;6.13;;;2.80;;
20986;SDS011;10652;50.306;8.570;2022-10-04T20:29:55;8.10;;;3.50;;
20986;SDS011;10652;50.306;8.570;2022-10-04T20:34:29;4.15;;;2.85;;
20986;SDS011;10652;50.306;8.570;2022-10-04T20:47:23;6.30;;;2.80;;
20986;SDS011;10652;50.306;8.570;2022-10-04T20:51:31;4.22;;;3.00;;
20986;SDS011;10652;50.306;8.570;2022-10-04T20:55:34;6.13;;;2.83;;
20986;SDS011;10652;50.306;8.570;2022-10-04T20:59:41;6.78;;;2.80;;
20986;SDS011;10652;50.306;8.570;2022-10-04T21:03:43;4.90;;;2.97;;
20986;SDS011;10652;50.306;8.570;2022-10-04T21:07:45;4.93;;;2.70;;
20986;SDS011;10652;50.306;8.570;2022-10-04T21:11:50;5.43;;;2.53;;
20986;SDS011;10652;50.306;8.570;2022-10-04T21:15:54;4.50;;;2.40;;
20986;SDS011;10652;50.306;8.570;2022-10-04T21:19:57;4.38;;;2.70;;
20986;SDS011;10652;50.306;8.570;2022-10-04T21:24:24;5.78;;;2.63;;
20986;SDS011;10652;50.306;8.570;2022-10-04T21:28:37;7.30;;;3.35;;
20986;SDS011;10652;50.306;8.570;2022-10-04T21:32:39;5.20;;;3.25;;
20986;SDS011;10652;50.306;8.570;2022-10-04T21:36:41;5.47;;;2.70;;
20986;SDS011;10652;50.306;8.570;2022-10-04T21:40:43;5.78;;;3.30;;
20986;SDS011;10652;50.306;8.570;2022-10-04T21:44:46;4.78;;;3.10;;
20986;SDS011;10652;50.306;8.570;2022-10-04T21:48:48;8.02;;;3.55;;
20986;SDS011;10652;50.306;8.570;2022-10-04T21:52:50;7.45;;;3.45;;
20986;SDS011;10652;50.306;8.570;2022-10-04T21:56:52;6.75;;;3.88;;
20986;SDS011;10652;50.306;8.570;2022-10-04T22:00:54;5.10;;;3.08;;
20986;SDS011;10652;50.306;8.570;2022-10-04T22:04:57;7.07;;;3.50;;
20986;SDS011;10652;50.306;8.570;2022-10-04T22:08:59;6.07;;;3.30;;
20986;SDS011;10652;50.306;8.570;2022-10-04T22:13:01;6.50;;;3.17;;
20986;SDS011;10652;50.306;8.570;2022-10-04T22:17:03;7.70;;;3.85;;
20986;SDS011;10652;50.306;8.570;2022-10-04T22:21:05;7.68;;;4.07;;
20986;SDS011;10652;50.306;8.570;2022-10-04T22:25:18;5.57;;;4.07;;
20986;SDS011;10652;50.306;8.570;2022-10-04T22:29:21;5.90;;;4.05;;
20986;SDS011;10652;50.306;8.570;2022-10-04T22:37:33;5.68;;;3.88;;
20986;SDS011;10652;50.306;8.570;2022-10-04T22:41:36;5.85;;;3.80;;
20986;SDS011;10652;50.306;8.570;2022-10-04T22:45:40;9.05;;;3.88;;
20986;SDS011;10652;50.306;8.570;2022-10-04T22:49:44;5.30;;;3.60;;
20986;SDS011;10652;50.306;8.570;2022-10-04T22:53:50;5.33;;;2.77;;
20986;SDS011;10652;50.306;8.570;2022-10-04T22:57:52;6.95;;;3.88;;
20986;SDS011;10652;50.306;8.570;2022-10-04T23:01:54;5.93;;;3.95;;
20986;SDS011;10652;50.306;8.570;2022-10-04T23:06:00;10.88;;;3.95;;
20986;SDS011;10652;50.306;8.570;2022-10-04T23:10:03;5.60;;;4.35;;
20986;SDS011;10652;50.306;8.570;2022-10-04T23:14:06;6.30;;;4.03;;
20986;SDS011;10652;50.306;8.570;2022-10-04T23:18:14;7.13;;;5.13;;
20986;SDS011;10652;50.306;8.570;2022-10-04T23:22:18;7.47;;;4.90;;
20986;SDS011;10652;50.306;8.570;2022-10-04T23:26:24;5.50;;;4.03;;
20986;SDS011;10652;50.306;8.570;2022-10-04T23:30:35;5.70;;;4.25;;
20986;SDS011;10652;50.306;8.570;2022-10-04T23:34:37;7.68;;;4.30;;
20986;SDS011;10652;50.306;8.570;2022-10-04T23:38:43;7.22;;;4.50;;
20986;SDS011;10652;50.306;8.570;2022-10-04T23:42:49;5.82;;;3.85;;
20986;SDS011;10652;50.306;8.570;2022-10-04T23:46:54;4.50;;;3.47;;
20986;SDS011;10652;50.306;8.570;2022-10-04T23:50:56;7.45;;;3.80;;
20986;SDS011;10652;50.306;8.570;2022-10-04T23:55:00;5.07;;;4.07;;
20986;SDS011;10652;50.306;8.570;2022-10-04T23:59:03;6.35;;;4.40;;
